Time,TemperatureF,DewpointF,PressureIn,WindDirection,WindDirectionDegrees,WindSpeedMPH,WindSpeedGustMPH,Humidity,HourlyPrecipIn,Conditions,Clouds,dailyrainin,SoftwareType,DateUTC
2013-02-14 00:06:00,35.6,34.0,29.63,NNW,337,1.1,-999.0,94,-99.99,,,0.00,Acu-Link.com,2013-02-14 05:06:00,
2013-02-14 00:21:00,35.6,34.0,29.64,NNW,337,0.0,-999.0,94,-99.99,,,0.00,Acu-Link.com,2013-02-14 05:21:00,
2013-02-14 00:37:00,33.8,32.3,29.65,NE,45,0.0,-999.0,94,-99.99,,,0.00,Acu-Link.com,2013-02-14 05:37:00,
2013-02-14 00:52:00,33.8,33.0,29.66,NNE,22,0.0,-999.0,97,-99.99,,,0.00,Acu-Link.com,2013-02-14 05:52:00,
2013-02-14 01:07:00,33.8,33.0,29.66,NNE,22,0.0,-999.0,97,-99.99,,,0.00,Acu-Link.com,2013-02-14 06:07:00,
2013-02-14 01:23:00,32.0,31.5,29.66,NNE,22,1.6,-999.0,98,-99.99,,,0.00,Acu-Link.com,2013-02-14 06:23:00,
2013-02-14 01:38:00,33.8,33.5,29.66,ESE,112,0.0,-999.0,99,-99.99,,,0.00,Acu-Link.com,2013-02-14 06:38:00,
2013-02-14 01:53:00,32.0,31.8,29.66,NW,315,0.0,-999.0,99,-99.99,,,0.00,Acu-Link.com,2013-02-14 06:53:00,
2013-02-14 02:09:00,32.0,31.8,29.67,NNE,22,0.0,-999.0,99,-99.99,,,0.01,Acu-Link.com,2013-02-14 07:09:00,
2013-02-14 02:24:00,32.0,31.8,29.67,NNE,22,0.0,-999.0,99,-99.99,,,0.01,Acu-Link.com,2013-02-14 07:24:00,
2013-02-14 02:39:00,32.0,31.8,29.67,NE,45,0.0,-999.0,99,-99.99,,,0.01,Acu-Link.com,2013-02-14 07:39:00,
2013-02-14 02:54:00,32.0,31.8,29.68,NNE,22,0.0,-999.0,99,-99.99,,,0.01,Acu-Link.com,2013-02-14 07:54:00,
2013-02-14 03:10:00,32.0,31.8,29.68,NNE,22,0.0,-999.0,99,-99.99,,,0.01,Acu-Link.com,2013-02-14 08:10:00,
2013-02-14 03:25:00,32.0,31.8,29.68,NNE,22,1.1,-999.0,99,-99.99,,,0.01,Acu-Link.com,2013-02-14 08:25:00,
2013-02-14 03:40:00,32.0,31.8,29.69,North,0,0.0,-999.0,99,-99.99,,,0.01,Acu-Link.com,2013-02-14 08:40:00,
2013-02-14 03:56:00,32.0,31.8,29.69,North,0,0.0,-999.0,99,-99.99,,,0.01,Acu-Link.com,2013-02-14 08:56:00,
2013-02-14 04:15:00,32.0,31.8,29.69,North,0,0.0,-999.0,99,-99.99,,,0.01,Acu-Link.com,2013-02-14 09:15:00,
2013-02-14 04:30:00,30.2,30.0,29.70,NNE,22,0.0,-999.0,99,-99.99,,,0.01,Acu-Link.com,2013-02-14 09:30:00,
2013-02-14 04:45:00,30.2,30.0,29.71,NNE,22,1.6,-999.0,99,-99.99,,,0.01,Acu-Link.com,2013-02-14 09:45:00,
2013-02-14 05:01:00,30.2,30.0,29.72,NNE,22,0.0,-999.0,99,-99.99,,,0.01,Acu-Link.com,2013-02-14 10:01:00,
2013-02-14 05:16:00,30.2,30.0,29.72,NNE,22,0.0,-999.0,99,-99.99,,,0.01,Acu-Link.com,2013-02-14 10:16:00,
2013-02-14 05:31:00,30.2,30.0,29.73,NNE,22,0.0,-999.0,99,-99.99,,,0.01,Acu-Link.com,2013-02-14 10:31:00,
2013-02-14 05:46:00,30.2,30.0,29.73,NNE,22,0.0,-999.0,99,-99.99,,,0.01,Acu-Link.com,2013-02-14 10:46:00,
2013-02-14 06:02:00,30.2,30.0,29.73,NW,315,1.1,-999.0,99,-99.99,,,0.01,Acu-Link.com,2013-02-14 11:02:00,
2013-02-14 06:17:00,30.2,30.0,29.74,NNW,337,0.0,-999.0,99,-99.99,,,0.01,Acu-Link.com,2013-02-14 11:17:00,
2013-02-14 06:32:00,30.2,30.0,29.74,North,0,0.0,-999.0,99,-99.99,,,0.01,Acu-Link.com,2013-02-14 11:32:00,
2013-02-14 06:48:00,30.2,30.0,29.76,North,0,1.6,-999.0,99,-99.99,,,0.01,Acu-Link.com,2013-02-14 11:48:00,
2013-02-14 07:03:00,28.4,28.2,29.76,North,0,0.0,-999.0,99,-99.99,,,0.01,Acu-Link.com,2013-02-14 12:03:00,
2013-02-14 07:18:00,28.4,28.2,29.76,North,0,0.0,-999.0,99,-99.99,,,0.01,Acu-Link.com,2013-02-14 12:18:00,
2013-02-14 07:33:00,28.4,28.2,29.76,NNW,337,0.0,-999.0,99,-99.99,,,0.01,Acu-Link.com,2013-02-14 12:33:00,
2013-02-14 07:49:00,30.2,30.0,29.78,NNE,22,0.0,-999.0,99,-99.99,,,0.01,Acu-Link.com,2013-02-14 12:49:00,
2013-02-14 08:04:00,30.2,30.0,29.79,NNE,22,0.0,-999.0,99,-99.99,,,0.01,Acu-Link.com,2013-02-14 13:04:00,
2013-02-14 08:19:00,32.0,31.8,29.80,NNE,22,0.0,-999.0,99,-99.99,,,0.01,Acu-Link.com,2013-02-14 13:19:00,
2013-02-14 08:35:00,33.8,33.5,49.38,NE,45,0.0,-999.0,99,-99.99,,,0.01,Acu-Link.com,2013-02-14 13:35:00,
2013-02-14 08:50:00,35.6,34.6,29.82,NE,45,0.0,-999.0,96,-99.99,,,0.01,Acu-Link.com,2013-02-14 13:50:00,
2013-02-14 09:05:00,37.4,35.0,29.82,ESE,112,2.0,-999.0,91,-99.99,,,0.01,Acu-Link.com,2013-02-14 14:05:00,
2013-02-14 09:21:00,41.0,35.9,29.82,West,270,2.0,-999.0,82,-99.99,,,0.01,Acu-Link.com,2013-02-14 14:21:00,
2013-02-14 09:36:00,44.6,37.5,29.82,ENE,67,2.7,-999.0,76,-99.99,,,0.01,Acu-Link.com,2013-02-14 14:36:00,
2013-02-14 09:51:00,46.4,36.8,29.81,WNW,292,4.0,-999.0,69,-99.99,,,0.01,Acu-Link.com,2013-02-14 14:51:00,
2013-02-14 10:06:00,50.0,36.2,29.82,SE,135,2.7,-999.0,59,-99.99,,,0.01,Acu-Link.com,2013-02-14 15:06:00,
2013-02-14 10:22:00,50.0,34.9,29.82,WSW,247,2.0,-999.0,56,-99.99,,,0.01,Acu-Link.com,2013-02-14 15:22:00,
2013-02-14 10:37:00,46.4,34.1,29.82,West,270,2.7,-999.0,62,-99.99,,,0.01,Acu-Link.com,2013-02-14 15:37:00,
2013-02-14 10:52:00,46.4,33.3,29.82,East,90,2.0,-999.0,60,-99.99,,,0.01,Acu-Link.com,2013-02-14 15:52:00,
2013-02-14 11:08:00,46.4,34.9,29.82,South,180,3.1,-999.0,64,-99.99,,,0.01,Acu-Link.com,2013-02-14 16:08:00,
2013-02-14 11:23:00,46.4,32.4,29.81,South,180,3.6,-999.0,58,-99.99,,,0.01,Acu-Link.com,2013-02-14 16:23:00,
2013-02-14 11:38:00,50.0,35.8,29.83,South,180,3.6,-999.0,58,-99.99,,,0.01,Acu-Link.com,2013-02-14 16:38:00,
2013-02-14 11:54:00,46.4,32.4,29.82,SSW,202,3.6,-999.0,58,-99.99,,,0.01,Acu-Link.com,2013-02-14 16:54:00,
2013-02-14 12:09:00,48.2,33.2,29.82,SSW,202,2.7,-999.0,56,-99.99,,,0.01,Acu-Link.com,2013-02-14 17:09:00,
2013-02-14 12:24:00,48.2,32.3,29.82,South,180,3.6,-999.0,54,-99.99,,,0.01,Acu-Link.com,2013-02-14 17:24:00,
2013-02-14 12:40:00,50.0,32.6,29.82,SSE,157,5.1,-999.0,51,-99.99,,,0.01,Acu-Link.com,2013-02-14 17:40:00,
2013-02-14 12:55:00,50.0,34.0,29.80,SW,225,5.1,-999.0,54,-99.99,,,0.01,Acu-Link.com,2013-02-14 17:55:00,
2013-02-14 13:10:00,50.0,34.5,29.80,South,180,4.0,-999.0,55,-99.99,,,0.01,Acu-Link.com,2013-02-14 18:10:00,
2013-02-14 13:26:00,51.8,34.7,29.80,ESE,112,3.1,-999.0,52,-99.99,,,0.01,Acu-Link.com,2013-02-14 18:26:00,
2013-02-14 13:41:00,50.0,33.1,29.79,West,270,5.6,-999.0,52,-99.99,,,0.01,Acu-Link.com,2013-02-14 18:41:00,
2013-02-14 13:56:00,51.8,33.8,29.78,WSW,247,2.7,-999.0,50,-99.99,,,0.01,Acu-Link.com,2013-02-14 18:56:00,
2013-02-14 14:11:00,51.8,33.8,29.77,South,180,5.6,-999.0,50,-99.99,,,0.01,Acu-Link.com,2013-02-14 19:11:00,
2013-02-14 14:27:00,51.8,33.8,29.76,SSE,157,3.6,-999.0,50,-99.99,,,0.01,Acu-Link.com,2013-02-14 19:27:00,
2013-02-14 14:42:00,53.6,33.3,29.76,SE,135,1.6,-999.0,46,-99.99,,,0.01,Acu-Link.com,2013-02-14 19:42:00,
2013-02-14 14:57:00,53.6,33.3,29.76,South,180,3.1,-999.0,46,-99.99,,,0.01,Acu-Link.com,2013-02-14 19:57:00,
2013-02-14 15:13:00,51.8,31.7,29.76,South,180,3.6,-999.0,46,-99.99,,,0.01,Acu-Link.com,2013-02-14 20:13:00,
2013-02-14 15:28:00,53.6,34.9,29.76,SSW,202,1.6,-999.0,49,-99.99,,,0.01,Acu-Link.com,2013-02-14 20:28:00,
2013-02-14 15:43:00,53.6,34.9,29.76,North,0,2.0,-999.0,49,-99.99,,,0.01,Acu-Link.com,2013-02-14 20:43:00,
2013-02-14 15:58:00,53.6,34.9,29.76,SSW,202,3.1,-999.0,49,-99.99,,,0.01,Acu-Link.com,2013-02-14 20:58:00,
2013-02-14 16:14:00,51.8,34.7,29.77,WNW,292,2.7,-999.0,52,-99.99,,,0.01,Acu-Link.com,2013-02-14 21:14:00,
2013-02-14 16:29:00,51.8,35.2,29.76,South,180,4.0,-999.0,53,-99.99,,,0.01,Acu-Link.com,2013-02-14 21:29:00,
2013-02-14 16:44:00,51.8,35.7,29.76,South,180,2.7,-999.0,54,-99.99,,,0.01,Acu-Link.com,2013-02-14 21:44:00,
2013-02-14 17:00:00,50.0,34.0,29.76,SSW,202,2.0,-999.0,54,-99.99,,,0.01,Acu-Link.com,2013-02-14 22:00:00,
2013-02-14 17:15:00,50.0,34.5,29.76,WNW,292,1.1,-999.0,55,-99.99,,,0.01,Acu-Link.com,2013-02-14 22:15:00,
2013-02-14 17:30:00,50.0,35.4,29.76,SW,225,2.7,-999.0,57,-99.99,,,0.01,Acu-Link.com,2013-02-14 22:30:00,
2013-02-14 17:46:00,50.0,35.4,29.76,West,270,0.0,-999.0,57,-99.99,,,0.01,Acu-Link.com,2013-02-14 22:46:00,
2013-02-14 18:01:00,46.4,33.7,29.76,West,270,1.1,-999.0,61,-99.99,,,0.01,Acu-Link.com,2013-02-14 23:01:00,
2013-02-14 18:16:00,44.6,34.3,29.77,NNE,22,1.6,-999.0,67,-99.99,,,0.01,Acu-Link.com,2013-02-14 23:16:00,
2013-02-14 18:31:00,42.8,34.1,29.77,NNE,22,3.1,-999.0,71,-99.99,,,0.01,Acu-Link.com,2013-02-14 23:31:00,
2013-02-14 18:47:00,41.0,33.7,29.77,NNE,22,1.6,-999.0,75,-99.99,,,0.01,Acu-Link.com,2013-02-14 23:47:00,
2013-02-14 19:02:00,41.0,34.0,29.78,NNE,22,0.0,-999.0,76,-99.99,,,0.01,Acu-Link.com,2013-02-15 00:02:00,
2013-02-14 19:17:00,39.2,32.9,29.77,NNE,22,0.0,-999.0,78,-99.99,,,0.01,Acu-Link.com,2013-02-15 00:17:00,
2013-02-14 19:32:00,37.4,32.4,29.77,NNE,22,0.0,-999.0,82,-99.99,,,0.01,Acu-Link.com,2013-02-15 00:32:00,
2013-02-14 19:48:00,37.4,32.4,29.77,NNE,22,0.0,-999.0,82,-99.99,,,0.01,Acu-Link.com,2013-02-15 00:48:00,
2013-02-14 20:03:00,35.6,31.8,29.78,NNE,22,0.0,-999.0,86,-99.99,,,0.01,Acu-Link.com,2013-02-15 01:03:00,
2013-02-14 20:18:00,35.6,32.7,29.79,NNE,22,0.0,-999.0,89,-99.99,,,0.01,Acu-Link.com,2013-02-15 01:18:00,
2013-02-14 20:34:00,35.6,32.7,29.79,NNE,22,0.0,-999.0,89,-99.99,,,0.01,Acu-Link.com,2013-02-15 01:34:00,
2013-02-14 20:49:00,35.6,33.5,29.80,West,270,0.0,-999.0,92,-99.99,,,0.01,Acu-Link.com,2013-02-15 01:49:00,
2013-02-14 21:04:00,35.6,34.0,29.80,WNW,292,0.0,-999.0,94,-99.99,,,0.01,Acu-Link.com,2013-02-15 02:04:00,
2013-02-14 21:19:00,35.6,34.0,29.81,WNW,292,0.0,-999.0,94,-99.99,,,0.01,Acu-Link.com,2013-02-15 02:19:00,
2013-02-14 21:35:00,33.8,32.5,29.81,WNW,292,0.0,-999.0,95,-99.99,,,0.01,Acu-Link.com,2013-02-15 02:35:00,
2013-02-14 21:50:00,33.8,32.5,29.82,NW,315,0.0,-999.0,95,-99.99,,,0.01,Acu-Link.com,2013-02-15 02:50:00,
2013-02-14 22:05:00,33.8,32.5,29.83,NW,315,0.0,-999.0,95,-99.99,,,0.01,Acu-Link.com,2013-02-15 03:05:00,
2013-02-14 22:20:00,33.8,32.8,29.83,NW,315,0.0,-999.0,96,-99.99,,,0.01,Acu-Link.com,2013-02-15 03:20:00,
2013-02-14 22:35:00,33.8,32.8,29.82,NW,315,0.0,-999.0,96,-99.99,,,0.01,Acu-Link.com,2013-02-15 03:35:00,
2013-02-14 22:51:00,33.8,32.8,29.81,NW,315,0.0,-999.0,96,-99.99,,,0.01,Acu-Link.com,2013-02-15 03:51:00,
2013-02-14 23:06:00,32.0,31.2,29.82,NW,315,0.0,-999.0,97,-99.99,,,0.01,Acu-Link.com,2013-02-15 04:06:00,
2013-02-14 23:21:00,33.8,33.3,29.82,NW,315,0.0,-999.0,98,-99.99,,,0.01,Acu-Link.com,2013-02-15 04:21:00,
2013-02-14 23:37:00,33.8,33.5,29.82,NW,315,1.1,-999.0,99,-99.99,,,0.01,Acu-Link.com,2013-02-15 04:37:00,
2013-02-14 23:52:00,33.8,33.5,29.82,NW,315,0.0,-999.0,99,-99.99,,,0.01,Acu-Link.com,2013-02-15 04:52:00,